createdAt,value
2022-07-29T00:00:14.146Z,16.65
2022-07-29T00:00:45.789Z,16.65
2022-07-29T00:01:19.020Z,16.66
2022-07-29T00:01:53.294Z,16.63
2022-07-29T00:02:24.758Z,16.66
2022-07-29T00:02:56.317Z,16.65
2022-07-29T00:03:27.757Z,16.65
2022-07-29T00:03:59.193Z,16.64
2022-07-29T00:04:30.753Z,16.63
2022-07-29T00:05:02.974Z,16.62
2022-07-29T00:05:54.120Z,16.57
2022-07-29T00:06:25.720Z,16.56
2022-07-29T00:06:57.192Z,16.53
2022-07-29T00:07:28.643Z,16.54
2022-07-29T00:08:00.110Z,16.53
2022-07-29T00:08:31.514Z,16.55
2022-07-29T00:09:03.234Z,16.54
2022-07-29T00:09:50.962Z,16.51
2022-07-29T00:11:13.680Z,16.45
2022-07-29T00:11:45.128Z,16.42
2022-07-29T00:12:16.553Z,16.40
2022-07-29T00:12:56.482Z,16.40
2022-07-29T00:13:50.895Z,16.38
2022-07-29T00:14:22.603Z,16.38
2022-07-29T00:14:56.299Z,16.37
2022-07-29T00:15:28.267Z,16.35
2022-07-29T00:16:04.477Z,16.36
2022-07-29T00:16:55.366Z,16.37
2022-07-29T00:17:45.482Z,16.36
2022-07-29T00:19:05.955Z,16.32
2022-07-29T00:19:39.365Z,16.33
2022-07-29T00:20:14.190Z,16.31
2022-07-29T00:20:45.557Z,16.30
2022-07-29T00:21:16.954Z,16.31
2022-07-29T00:21:48.525Z,16.30
2022-07-29T00:22:20.784Z,16.28
2022-07-29T00:22:52.920Z,16.24
2022-07-29T00:23:24.291Z,16.27
2022-07-29T00:23:55.692Z,16.27
2022-07-29T00:24:27.088Z,16.25
2022-07-29T00:24:58.441Z,16.28
2022-07-29T00:25:29.909Z,16.26
2022-07-29T00:26:02.174Z,16.24
2022-07-29T00:26:33.667Z,16.22
2022-07-29T00:27:05.072Z,16.21
2022-07-29T00:27:37.379Z,16.25
2022-07-29T00:28:08.767Z,16.23
2022-07-29T00:28:40.261Z,16.23
2022-07-29T00:29:33.759Z,16.25
2022-07-29T00:30:04.743Z,16.26
2022-07-29T00:30:36.170Z,16.23
2022-07-29T00:31:08.935Z,16.26
2022-07-29T00:31:40.486Z,16.25
2022-07-29T00:32:30.328Z,16.23
2022-07-29T00:33:01.759Z,16.25
2022-07-29T00:33:33.160Z,16.27
2022-07-29T00:34:04.644Z,16.24
2022-07-29T00:34:54.732Z,16.25
2022-07-29T00:35:44.581Z,16.23
2022-07-29T00:36:15.956Z,16.23
2022-07-29T00:36:47.364Z,16.21
2022-07-29T00:37:18.727Z,16.21
2022-07-29T00:37:50.350Z,16.21
2022-07-29T00:38:21.996Z,16.20
2022-07-29T00:38:54.132Z,16.21
2022-07-29T00:39:25.626Z,16.19
2022-07-29T00:39:58.898Z,16.22
2022-07-29T00:40:48.681Z,16.19
2022-07-29T00:41:20.158Z,16.19
2022-07-29T00:41:51.605Z,16.19
2022-07-29T00:42:23.004Z,16.17
2022-07-29T00:42:54.676Z,16.17
2022-07-29T00:43:26.037Z,16.18
2022-07-29T00:43:57.598Z,16.17
2022-07-29T00:44:28.984Z,16.17
2022-07-29T00:45:00.350Z,16.12
2022-07-29T00:45:32.003Z,16.12
2022-07-29T00:46:03.376Z,16.10
2022-07-29T00:46:34.851Z,16.09
2022-07-29T00:47:07.035Z,16.09
2022-07-29T00:47:38.561Z,16.07
2022-07-29T00:48:10.265Z,16.07
2022-07-29T00:48:41.660Z,16.04
2022-07-29T00:49:32.009Z,16.08
2022-07-29T00:50:06.308Z,16.07
2022-07-29T00:50:38.299Z,16.05
2022-07-29T00:51:11.136Z,16.05
2022-07-29T00:51:42.580Z,16.03
2022-07-29T00:52:15.536Z,16.04
2022-07-29T00:52:48.877Z,16.03
2022-07-29T00:53:21.103Z,16.01
2022-07-29T00:53:53.661Z,16.02
2022-07-29T00:54:25.123Z,16.03
2022-07-29T00:54:57.361Z,16.03
2022-07-29T00:55:29.926Z,16.03
2022-07-29T00:56:01.424Z,16.03
2022-07-29T00:56:33.891Z,16.02
2022-07-29T00:57:07.611Z,15.99
2022-07-29T00:57:41.051Z,16.03
2022-07-29T00:58:14.808Z,16.01
2022-07-29T00:58:49.132Z,16.02
2022-07-29T00:59:20.706Z,16.01
2022-07-29T00:59:52.310Z,16.02
2022-07-29T01:00:45.473Z,15.98
2022-07-29T01:01:17.131Z,15.97
2022-07-29T01:01:48.635Z,15.95
2022-07-29T01:02:20.129Z,15.93
2022-07-29T01:02:51.833Z,15.91
2022-07-29T01:03:23.186Z,15.90
2022-07-29T01:03:54.661Z,15.87
2022-07-29T01:04:26.588Z,15.88
2022-07-29T01:04:58.523Z,15.87
2022-07-29T01:05:50.308Z,15.88
2022-07-29T01:06:23.489Z,15.89
2022-07-29T01:06:55.611Z,15.91
2022-07-29T01:07:28.341Z,15.91
2022-07-29T01:08:00.821Z,15.92
2022-07-29T01:08:33.988Z,15.89
2022-07-29T01:09:05.849Z,15.92
2022-07-29T01:09:45.981Z,15.91
2022-07-29T01:10:20.617Z,15.91
2022-07-29T01:10:53.072Z,15.89
2022-07-29T01:11:26.632Z,15.88
2022-07-29T01:11:59.117Z,15.89
2022-07-29T01:12:34.768Z,15.88
2022-07-29T01:13:08.441Z,15.86
2022-07-29T01:13:40.233Z,15.87
2022-07-29T01:14:12.666Z,15.88
2022-07-29T01:14:44.520Z,15.87
2022-07-29T01:15:16.259Z,15.83
2022-07-29T01:15:56.994Z,15.86
2022-07-29T01:16:33.784Z,15.86
2022-07-29T01:17:13.574Z,15.86
2022-07-29T01:17:52.760Z,15.85
2022-07-29T01:18:32.702Z,15.83
2022-07-29T01:19:24.063Z,15.86
2022-07-29T01:20:14.352Z,15.86
2022-07-29T01:21:19.890Z,15.86
2022-07-29T01:21:56.047Z,15.82
2022-07-29T01:22:37.481Z,15.82
2022-07-29T01:23:29.448Z,15.80
2022-07-29T01:24:29.712Z,15.80
2022-07-29T01:25:21.145Z,15.81
2022-07-29T01:26:34.238Z,15.77
2022-07-29T01:27:28.572Z,15.75
2022-07-29T01:28:01.281Z,15.75
2022-07-29T01:29:09.933Z,15.73
2022-07-29T01:29:48.844Z,15.72
2022-07-29T01:30:23.533Z,15.72
2022-07-29T01:30:57.438Z,15.71
2022-07-29T01:31:40.339Z,15.68
2022-07-29T01:32:34.295Z,15.68
2022-07-29T01:33:46.057Z,15.66
2022-07-29T01:34:28.799Z,15.65
2022-07-29T01:35:07.651Z,15.62
2022-07-29T01:35:43.698Z,15.62
2022-07-29T01:36:19.634Z,15.63
2022-07-29T01:37:12.736Z,15.63
2022-07-29T01:37:49.952Z,15.63
2022-07-29T01:38:42.341Z,15.63
2022-07-29T01:39:20.766Z,15.64
2022-07-29T01:39:55.032Z,15.64
2022-07-29T01:40:32.004Z,15.63
2022-07-29T01:41:09.666Z,15.64
2022-07-29T01:41:51.665Z,15.63
2022-07-29T01:42:36.386Z,15.64
2022-07-29T01:43:12.303Z,15.63
2022-07-29T01:43:56.217Z,15.61
2022-07-29T01:45:02.691Z,15.60
2022-07-29T01:45:52.767Z,15.59
2022-07-29T01:46:47.104Z,15.58
2022-07-29T01:47:24.351Z,15.57
2022-07-29T01:47:55.677Z,15.56
2022-07-29T01:48:35.873Z,15.54
2022-07-29T01:50:09.432Z,15.53
2022-07-29T01:50:48.200Z,15.54
2022-07-29T01:51:25.273Z,15.54
2022-07-29T01:52:12.168Z,15.53
2022-07-29T01:52:49.022Z,15.54
2022-07-29T01:53:38.018Z,15.54
2022-07-29T01:54:35.339Z,15.55
2022-07-29T01:55:14.469Z,15.53
2022-07-29T01:55:46.942Z,15.53
2022-07-29T01:56:39.662Z,15.52
2022-07-29T01:57:14.945Z,15.53
2022-07-29T01:57:50.038Z,15.54
2022-07-29T01:58:22.642Z,15.56
2022-07-29T01:58:55.438Z,15.54
2022-07-29T01:59:27.204Z,15.51
2022-07-29T02:00:01.700Z,15.51
2022-07-29T02:00:35.259Z,15.52
2022-07-29T02:01:25.967Z,15.55
2022-07-29T02:01:59.751Z,15.55
2022-07-29T02:02:33.579Z,15.54
2022-07-29T02:03:09.824Z,15.54
2022-07-29T02:03:45.760Z,15.51
2022-07-29T02:04:29.482Z,15.51
2022-07-29T02:05:03.308Z,15.50
2022-07-29T02:05:37.036Z,15.48
2022-07-29T02:06:11.674Z,15.48
2022-07-29T02:06:45.244Z,15.47
2022-07-29T02:07:20.842Z,15.49
2022-07-29T02:07:54.808Z,15.48
2022-07-29T02:08:29.161Z,15.47
2022-07-29T02:09:03.127Z,15.51
2022-07-29T02:09:37.257Z,15.50
2022-07-29T02:10:11.049Z,15.51
2022-07-29T02:11:02.022Z,15.51
2022-07-29T02:11:34.339Z,15.51
2022-07-29T02:12:08.278Z,15.53
2022-07-29T02:12:41.501Z,15.52
2022-07-29T02:13:15.066Z,15.53
2022-07-29T02:13:49.676Z,15.53
2022-07-29T02:14:23.313Z,15.52
2022-07-29T02:14:57.993Z,15.51
2022-07-29T02:15:32.923Z,15.52
2022-07-29T02:16:07.926Z,15.52
2022-07-29T02:16:41.691Z,15.52
2022-07-29T02:17:32.564Z,15.52
2022-07-29T02:18:18.164Z,15.53
2022-07-29T02:18:53.424Z,15.52
2022-07-29T02:19:46.381Z,15.52
2022-07-29T02:20:18.260Z,15.52
2022-07-29T02:20:53.189Z,15.51
2022-07-29T02:21:27.684Z,15.51
2022-07-29T02:22:19.121Z,15.48
2022-07-29T02:23:11.800Z,15.51
2022-07-29T02:24:53.656Z,15.50
2022-07-29T02:25:25.882Z,15.47
2022-07-29T02:26:09.867Z,15.47
2022-07-29T02:26:43.934Z,15.46
2022-07-29T02:27:16.096Z,15.46
2022-07-29T02:27:49.993Z,15.45
2022-07-29T02:28:25.080Z,15.46
2022-07-29T02:28:58.269Z,15.45
2022-07-29T02:30:45.470Z,15.46
2022-07-29T02:31:19.895Z,15.45
2022-07-29T02:31:53.483Z,15.45
2022-07-29T02:32:28.108Z,15.44
2022-07-29T02:33:00.188Z,15.45
2022-07-29T02:33:33.206Z,15.44
2022-07-29T02:34:24.156Z,15.43
2022-07-29T02:34:56.756Z,15.44
2022-07-29T02:35:28.646Z,15.43
2022-07-29T02:36:06.711Z,15.42
2022-07-29T02:36:39.571Z,15.41
2022-07-29T02:37:12.644Z,15.40
2022-07-29T02:38:06.432Z,15.40
2022-07-29T02:38:51.235Z,15.37
2022-07-29T02:39:25.296Z,15.37
2022-07-29T02:39:59.552Z,15.38
2022-07-29T02:40:49.750Z,15.38
2022-07-29T02:41:27.120Z,15.38
2022-07-29T02:42:08.246Z,15.37
2022-07-29T02:42:43.385Z,15.37
2022-07-29T02:43:15.085Z,15.35
2022-07-29T02:43:49.629Z,15.36
2022-07-29T02:44:24.946Z,15.36
2022-07-29T02:44:57.020Z,15.34
2022-07-29T02:45:30.328Z,15.34
2022-07-29T02:46:05.731Z,15.36
2022-07-29T02:47:16.415Z,15.35
2022-07-29T02:47:51.252Z,15.33
2022-07-29T02:48:33.223Z,15.33
2022-07-29T02:49:13.479Z,15.32
2022-07-29T02:50:12.915Z,15.33
2022-07-29T02:50:58.046Z,15.31
2022-07-29T02:51:44.102Z,15.31
2022-07-29T02:52:25.605Z,15.31
2022-07-29T02:53:03.230Z,15.32
2022-07-29T02:53:55.037Z,15.32
2022-07-29T02:54:39.968Z,15.31
2022-07-29T02:55:41.227Z,15.31
2022-07-29T02:56:17.376Z,15.32
2022-07-29T02:56:50.279Z,15.31
2022-07-29T02:57:30.048Z,15.31
2022-07-29T02:58:21.949Z,15.32
2022-07-29T02:59:00.282Z,15.32
2022-07-29T02:59:37.341Z,15.32
2022-07-29T03:00:10.524Z,15.33
2022-07-29T03:00:47.158Z,15.31
2022-07-29T03:01:24.014Z,15.33
2022-07-29T03:02:14.977Z,15.33
2022-07-29T03:02:53.093Z,15.32
2022-07-29T03:03:29.013Z,15.32
2022-07-29T03:04:04.235Z,15.31
2022-07-29T03:04:37.387Z,15.30
2022-07-29T03:05:21.773Z,15.32
2022-07-29T03:05:58.094Z,15.29
2022-07-29T03:06:37.873Z,15.30
2022-07-29T03:07:13.996Z,15.27
2022-07-29T03:07:50.272Z,15.28
2022-07-29T03:08:22.837Z,15.28
2022-07-29T03:09:46.126Z,15.27
2022-07-29T03:10:18.877Z,15.28
2022-07-29T03:11:09.345Z,15.28
2022-07-29T03:11:49.627Z,15.28
2022-07-29T03:12:23.416Z,15.26
2022-07-29T03:12:56.811Z,15.27
2022-07-29T03:13:29.407Z,15.29
2022-07-29T03:14:20.494Z,15.30
2022-07-29T03:15:11.181Z,15.28
2022-07-29T03:15:46.463Z,15.30
2022-07-29T03:16:20.358Z,15.28
2022-07-29T03:17:10.894Z,15.27
2022-07-29T03:17:44.075Z,15.27
2022-07-29T03:18:16.058Z,15.26
2022-07-29T03:18:48.548Z,15.26
2022-07-29T03:19:21.254Z,15.26
2022-07-29T03:19:53.078Z,15.24
2022-07-29T03:20:24.644Z,15.26
2022-07-29T03:20:56.197Z,15.27
2022-07-29T03:22:16.731Z,15.26
2022-07-29T03:22:51.165Z,15.27
2022-07-29T03:23:24.762Z,15.25
2022-07-29T03:23:56.129Z,15.26
2022-07-29T03:24:36.856Z,15.25
2022-07-29T03:25:09.619Z,15.24
2022-07-29T03:25:41.077Z,15.25
2022-07-29T03:26:13.940Z,15.27
2022-07-29T03:26:45.420Z,15.25
2022-07-29T03:27:17.306Z,15.25
2022-07-29T03:27:49.418Z,15.25
2022-07-29T03:28:21.006Z,15.26
2022-07-29T03:28:53.584Z,15.26
2022-07-29T03:29:25.870Z,15.25
2022-07-29T03:30:26.679Z,15.25
2022-07-29T03:30:58.752Z,15.26
2022-07-29T03:31:30.678Z,15.25
2022-07-29T03:32:07.960Z,15.26
2022-07-29T03:32:42.545Z,15.27
2022-07-29T03:33:16.692Z,15.26
2022-07-29T03:33:48.036Z,15.24
2022-07-29T03:34:38.870Z,15.26
2022-07-29T03:35:10.372Z,15.25
2022-07-29T03:35:42.437Z,15.25
2022-07-29T03:36:14.385Z,15.25
2022-07-29T03:36:45.800Z,15.23
2022-07-29T03:37:17.268Z,15.23
2022-07-29T03:37:49.003Z,15.23
2022-07-29T03:38:24.623Z,15.24
2022-07-29T03:38:58.655Z,15.24
2022-07-29T03:39:33.939Z,15.23
2022-07-29T03:40:09.669Z,15.21
2022-07-29T03:40:49.404Z,15.23
2022-07-29T03:41:23.613Z,15.25
2022-07-29T03:41:57.404Z,15.26
2022-07-29T03:42:34.483Z,15.25
2022-07-29T03:43:09.821Z,15.22
2022-07-29T03:43:49.102Z,15.23
2022-07-29T03:44:22.988Z,15.24
2022-07-29T03:44:56.699Z,15.25
2022-07-29T03:45:30.953Z,15.24
2022-07-29T03:46:23.296Z,15.23
2022-07-29T03:46:56.722Z,15.23
2022-07-29T03:47:51.162Z,15.21
2022-07-29T03:48:25.269Z,15.21
2022-07-29T03:49:00.925Z,15.19
2022-07-29T03:49:33.611Z,15.20
2022-07-29T03:50:11.393Z,15.18
2022-07-29T03:50:43.273Z,15.21
2022-07-29T03:51:15.271Z,15.22
2022-07-29T03:51:47.017Z,15.21
2022-07-29T03:52:19.071Z,15.23
2022-07-29T03:52:51.026Z,15.23
2022-07-29T03:53:22.760Z,15.22
2022-07-29T03:53:54.621Z,15.23
2022-07-29T03:54:27.580Z,15.21
2022-07-29T03:54:59.205Z,15.20
2022-07-29T03:55:37.309Z,15.23
2022-07-29T03:56:11.444Z,15.23
2022-07-29T03:56:47.290Z,15.18
2022-07-29T03:57:21.653Z,15.18
2022-07-29T03:57:56.642Z,15.16
2022-07-29T03:58:28.836Z,15.15
2022-07-29T03:59:02.832Z,15.12
2022-07-29T03:59:37.047Z,15.10
2022-07-29T04:00:27.948Z,15.11
2022-07-29T04:01:18.742Z,15.10
2022-07-29T04:01:51.379Z,15.12
2022-07-29T04:02:28.670Z,15.12
2022-07-29T04:03:04.723Z,15.10
2022-07-29T04:03:42.254Z,15.08
2022-07-29T04:04:14.258Z,15.10
2022-07-29T04:04:46.282Z,15.08
2022-07-29T04:05:18.838Z,15.08
2022-07-29T04:06:04.191Z,15.08
2022-07-29T04:06:40.324Z,15.09
2022-07-29T04:07:13.762Z,15.10
2022-07-29T04:07:48.613Z,15.10
2022-07-29T04:08:38.849Z,15.12
2022-07-29T04:09:10.915Z,15.11
2022-07-29T04:09:43.080Z,15.11
2022-07-29T04:10:16.707Z,15.09
2022-07-29T04:10:48.397Z,15.10
2022-07-29T04:11:20.012Z,15.10
2022-07-29T04:12:00.668Z,15.07
2022-07-29T04:12:35.181Z,15.08
2022-07-29T04:13:06.575Z,15.08
2022-07-29T04:13:37.933Z,15.10
2022-07-29T04:14:09.404Z,15.10
2022-07-29T04:14:40.825Z,15.08
2022-07-29T04:15:12.991Z,15.06
2022-07-29T04:15:44.706Z,15.05
2022-07-29T04:16:34.955Z,15.06
2022-07-29T04:17:06.417Z,15.04
2022-07-29T04:17:37.884Z,15.03
2022-07-29T04:18:27.789Z,15.03
2022-07-29T04:19:00.061Z,15.04
2022-07-29T04:19:32.098Z,15.05
2022-07-29T04:20:04.808Z,15.06
2022-07-29T04:20:36.159Z,15.03
2022-07-29T04:21:07.659Z,15.05
2022-07-29T04:21:40.101Z,15.04
2022-07-29T04:22:11.461Z,15.06
2022-07-29T04:22:43.032Z,15.07
2022-07-29T04:23:14.420Z,15.06
2022-07-29T04:23:53.827Z,15.06
2022-07-29T04:24:25.817Z,15.07
2022-07-29T04:25:01.783Z,15.07
2022-07-29T04:25:38.261Z,15.06
2022-07-29T04:26:11.743Z,15.05
2022-07-29T04:26:43.451Z,15.04
2022-07-29T04:27:14.921Z,15.02
2022-07-29T04:28:01.504Z,15.01
2022-07-29T04:28:32.869Z,15.04
2022-07-29T04:29:04.563Z,15.04
2022-07-29T04:29:36.452Z,15.06
2022-07-29T04:30:28.217Z,15.04
2022-07-29T04:30:59.979Z,15.06
2022-07-29T04:31:31.569Z,15.03
2022-07-29T04:32:03.042Z,15.04
2022-07-29T04:32:34.393Z,15.05
2022-07-29T04:33:08.026Z,15.06
2022-07-29T04:33:40.464Z,15.05
2022-07-29T04:34:12.746Z,15.05
2022-07-29T04:34:46.441Z,15.06
2022-07-29T04:35:37.940Z,15.06
2022-07-29T04:36:28.539Z,15.04
2022-07-29T04:37:01.217Z,15.01
2022-07-29T04:37:32.581Z,15.01
2022-07-29T04:38:05.592Z,14.99
2022-07-29T04:38:36.965Z,15.00
2022-07-29T04:39:08.321Z,15.01
2022-07-29T04:39:39.851Z,15.03
2022-07-29T04:40:11.685Z,15.04
2022-07-29T04:40:43.076Z,15.03
2022-07-29T04:41:14.576Z,15.01
2022-07-29T04:41:54.923Z,15.01
2022-07-29T04:42:29.444Z,14.99
2022-07-29T04:43:01.899Z,15.02
2022-07-29T04:43:37.292Z,15.02
2022-07-29T04:44:08.739Z,15.03
2022-07-29T04:44:43.275Z,15.01
2022-07-29T04:45:16.179Z,15.01
2022-07-29T04:45:47.597Z,15.02
2022-07-29T04:46:19.037Z,15.02
2022-07-29T04:47:09.635Z,15.03
2022-07-29T04:47:41.228Z,15.01
2022-07-29T04:48:12.617Z,15.03
2022-07-29T04:48:46.643Z,15.01
2022-07-29T04:49:18.156Z,15.03
2022-07-29T04:49:49.573Z,15.04
2022-07-29T04:50:20.980Z,15.02
2022-07-29T04:50:52.841Z,15.02
2022-07-29T04:51:24.887Z,15.03
2022-07-29T04:51:56.266Z,15.04
2022-07-29T04:52:27.637Z,15.03
2022-07-29T04:53:47.952Z,15.02
2022-07-29T04:54:19.623Z,15.02
2022-07-29T04:54:51.214Z,15.01
2022-07-29T04:55:22.572Z,15.01
2022-07-29T04:55:53.939Z,15.01
2022-07-29T04:56:25.282Z,15.00
2022-07-29T04:56:56.621Z,15.00
2022-07-29T04:57:28.205Z,15.02
2022-07-29T04:57:59.669Z,15.01
2022-07-29T04:58:36.377Z,15.01
2022-07-29T04:59:08.007Z,15.01
2022-07-29T04:59:39.410Z,15.00
2022-07-29T05:00:11.362Z,15.00
2022-07-29T05:00:42.935Z,14.98
2022-07-29T05:01:15.506Z,14.95
2022-07-29T05:01:46.951Z,14.96
2022-07-29T05:02:18.491Z,14.96
2022-07-29T05:02:50.625Z,14.96
2022-07-29T05:03:23.216Z,14.97
2022-07-29T05:03:59.895Z,14.98
2022-07-29T05:04:31.849Z,15.00
2022-07-29T05:05:52.510Z,15.02
2022-07-29T05:06:23.985Z,15.03
2022-07-29T05:06:55.560Z,15.01
2022-07-29T05:07:26.979Z,15.01
2022-07-29T05:07:58.377Z,15.02
2022-07-29T05:08:29.817Z,15.02
2022-07-29T05:09:01.163Z,15.01
2022-07-29T05:09:33.167Z,15.02
2022-07-29T05:10:04.993Z,15.00
2022-07-29T05:10:55.141Z,15.02
2022-07-29T05:11:30.087Z,15.03
2022-07-29T05:12:02.081Z,15.04
2022-07-29T05:12:33.439Z,15.02
2022-07-29T05:13:08.727Z,15.02
2022-07-29T05:13:45.366Z,15.03
2022-07-29T05:14:18.145Z,15.02
2022-07-29T05:14:49.929Z,15.02
2022-07-29T05:15:21.420Z,15.04
2022-07-29T05:15:52.905Z,15.05
2022-07-29T05:16:24.402Z,15.05
2022-07-29T05:16:57.620Z,15.06
2022-07-29T05:17:29.010Z,15.06
2022-07-29T05:18:01.276Z,15.09
2022-07-29T05:18:32.668Z,15.06
2022-07-29T05:19:04.023Z,15.10
2022-07-29T05:19:39.443Z,15.10
2022-07-29T05:20:11.451Z,15.10
2022-07-29T05:20:43.117Z,15.08
2022-07-29T05:21:14.609Z,15.04
2022-07-29T05:21:46.102Z,15.03
2022-07-29T05:22:19.113Z,15.03
2022-07-29T05:22:50.464Z,15.04
2022-07-29T05:23:21.837Z,15.07
2022-07-29T05:24:11.810Z,15.07
2022-07-29T05:24:43.318Z,15.10
2022-07-29T05:25:14.865Z,15.11
2022-07-29T05:25:47.158Z,15.11
2022-07-29T05:26:37.123Z,15.11
2022-07-29T05:27:08.578Z,15.13
2022-07-29T05:27:40.241Z,15.13
2022-07-29T05:28:12.242Z,15.14
2022-07-29T05:28:43.763Z,15.15
2022-07-29T05:29:45.019Z,15.15
2022-07-29T05:30:07.244Z,15.14
2022-07-29T05:30:38.817Z,15.14
2022-07-29T05:31:10.357Z,15.15
2022-07-29T05:31:41.786Z,15.16
2022-07-29T05:32:14.155Z,15.16
2022-07-29T05:32:45.558Z,15.17
2022-07-29T05:33:35.577Z,15.18
2022-07-29T05:34:08.173Z,15.19
2022-07-29T05:34:51.241Z,15.18
2022-07-29T05:35:41.931Z,15.19
2022-07-29T05:36:13.313Z,15.21
2022-07-29T05:36:44.651Z,15.21
2022-07-29T05:37:16.229Z,15.24
2022-07-29T05:37:47.717Z,15.22
2022-07-29T05:38:19.093Z,15.25
2022-07-29T05:38:51.728Z,15.24
2022-07-29T05:39:46.968Z,15.25
2022-07-29T05:40:16.204Z,15.24
2022-07-29T05:40:48.856Z,15.25
2022-07-29T05:41:20.791Z,15.23
2022-07-29T05:41:52.226Z,15.21
2022-07-29T05:42:24.122Z,15.23
2022-07-29T05:42:55.778Z,15.25
2022-07-29T05:43:31.014Z,15.27
2022-07-29T05:44:03.125Z,15.31
2022-07-29T05:44:53.172Z,15.33
2022-07-29T05:45:25.377Z,15.34
2022-07-29T05:45:57.630Z,15.34
2022-07-29T05:46:29.169Z,15.33
2022-07-29T05:47:00.706Z,15.37
2022-07-29T05:47:32.270Z,15.38
2022-07-29T05:48:03.818Z,15.39
2022-07-29T05:48:35.222Z,15.39
2022-07-29T05:49:07.450Z,15.39
2022-07-29T05:49:39.439Z,15.43
2022-07-29T05:50:29.557Z,15.44
2022-07-29T05:51:01.153Z,15.47
2022-07-29T05:51:33.977Z,15.47
2022-07-29T05:52:05.732Z,15.47
2022-07-29T05:52:37.149Z,15.48
2022-07-29T05:53:19.682Z,15.48
2022-07-29T05:53:52.015Z,15.48
2022-07-29T05:54:23.356Z,15.49
2022-07-29T05:54:54.920Z,15.50
2022-07-29T05:55:26.275Z,15.48
2022-07-29T05:55:57.666Z,15.48
2022-07-29T05:56:29.574Z,15.47
2022-07-29T05:57:00.962Z,15.50
2022-07-29T05:57:32.666Z,15.51
2022-07-29T05:58:22.539Z,15.50
2022-07-29T05:58:54.335Z,15.54
2022-07-29T05:59:30.169Z,15.55
2022-07-29T06:00:01.840Z,15.57
2022-07-29T06:00:33.360Z,15.60
2022-07-29T06:01:04.785Z,15.62
2022-07-29T06:01:54.999Z,15.63
2022-07-29T06:02:26.553Z,15.64
2022-07-29T06:02:57.928Z,15.61
2022-07-29T06:03:48.295Z,15.61
2022-07-29T06:04:20.215Z,15.63
2022-07-29T06:04:51.967Z,15.64
2022-07-29T06:05:23.893Z,15.64
2022-07-29T06:06:13.831Z,15.64
2022-07-29T06:07:03.650Z,15.65
2022-07-29T06:07:35.108Z,15.68
2022-07-29T06:08:08.071Z,15.70
2022-07-29T06:08:39.721Z,15.71
2022-07-29T06:09:12.245Z,15.73
2022-07-29T06:09:44.268Z,15.75
2022-07-29T06:10:15.738Z,15.76
2022-07-29T06:10:47.277Z,15.78
2022-07-29T06:11:18.649Z,15.78
2022-07-29T06:12:09.092Z,15.80
2022-07-29T06:13:29.884Z,15.79
2022-07-29T06:14:01.271Z,15.78
2022-07-29T06:14:33.544Z,15.78
2022-07-29T06:15:05.481Z,15.78
2022-07-29T06:15:36.936Z,15.78
2022-07-29T06:16:08.467Z,15.79
2022-07-29T06:16:39.909Z,15.78
2022-07-29T06:17:12.606Z,15.81
2022-07-29T06:17:59.183Z,15.82
2022-07-29T06:18:32.775Z,15.86
2022-07-29T06:19:05.240Z,15.86
2022-07-29T06:19:37.256Z,15.86
2022-07-29T06:20:10.787Z,15.89
2022-07-29T06:21:01.130Z,15.89
2022-07-29T06:21:32.547Z,15.87
2022-07-29T06:22:04.345Z,15.87
2022-07-29T06:22:35.790Z,15.84
2022-07-29T06:23:07.406Z,15.83
2022-07-29T06:23:39.624Z,15.87
2022-07-29T06:24:15.299Z,15.89
2022-07-29T06:24:46.993Z,15.92
2022-07-29T06:25:18.349Z,15.91
2022-07-29T06:26:40.169Z,15.89
2022-07-29T06:28:01.349Z,15.87
2022-07-29T06:28:33.721Z,15.85
2022-07-29T06:29:05.064Z,15.85
2022-07-29T06:29:36.397Z,15.85
2022-07-29T06:30:08.250Z,15.85
2022-07-29T06:30:40.552Z,15.84
2022-07-29T06:31:12.057Z,15.81
2022-07-29T06:31:43.658Z,15.85
2022-07-29T06:33:04.815Z,15.84
2022-07-29T06:33:55.057Z,15.81
2022-07-29T06:34:26.869Z,15.78
2022-07-29T06:35:17.720Z,15.78
2022-07-29T06:35:53.690Z,15.76
2022-07-29T06:36:26.564Z,15.77
2022-07-29T06:36:59.373Z,15.77
2022-07-29T06:37:49.724Z,15.78
2022-07-29T06:38:33.925Z,15.78
2022-07-29T06:39:09.753Z,15.78
2022-07-29T06:39:43.095Z,15.75
2022-07-29T06:40:33.101Z,15.73
2022-07-29T06:41:06.052Z,15.70
2022-07-29T06:41:37.464Z,15.68
2022-07-29T06:42:08.829Z,15.68
2022-07-29T06:42:44.219Z,15.66
2022-07-29T06:43:15.631Z,15.69
2022-07-29T06:43:52.628Z,15.69
2022-07-29T06:44:26.051Z,15.71
2022-07-29T06:45:17.013Z,15.74
2022-07-29T06:45:48.374Z,15.71
2022-07-29T06:46:21.014Z,15.71
2022-07-29T06:46:52.599Z,15.72
2022-07-29T06:47:23.981Z,15.73
2022-07-29T06:47:55.391Z,15.77
2022-07-29T06:48:27.556Z,15.80
2022-07-29T06:48:58.982Z,15.86
2022-07-29T06:49:30.677Z,15.91
2022-07-29T06:50:02.087Z,15.94
2022-07-29T06:50:52.392Z,15.97
2022-07-29T06:51:24.245Z,16.03
2022-07-29T06:51:56.200Z,16.04
2022-07-29T06:52:46.313Z,16.11
2022-07-29T06:53:17.632Z,16.11
2022-07-29T06:54:07.786Z,16.13
2022-07-29T06:54:39.759Z,16.14
2022-07-29T06:55:11.180Z,16.14
2022-07-29T06:55:57.195Z,16.15
2022-07-29T06:56:28.705Z,16.14
2022-07-29T06:57:00.249Z,16.17
2022-07-29T06:57:31.660Z,16.17
2022-07-29T06:58:03.513Z,16.20
2022-07-29T06:58:36.239Z,16.20
2022-07-29T06:59:09.293Z,16.21
2022-07-29T06:59:41.009Z,16.20
2022-07-29T07:00:13.188Z,16.20
2022-07-29T07:02:44.634Z,16.32
2022-07-29T07:03:17.425Z,16.37
2022-07-29T07:03:48.842Z,16.40
2022-07-29T07:04:20.954Z,16.45
2022-07-29T07:04:52.893Z,16.47
2022-07-29T07:06:15.080Z,16.56
2022-07-29T07:06:46.692Z,16.59
2022-07-29T07:08:06.994Z,16.63
2022-07-29T07:08:38.332Z,16.65
2022-07-29T07:09:09.717Z,16.65
2022-07-29T07:09:41.158Z,16.70
2022-07-29T07:10:12.567Z,16.70
2022-07-29T07:10:44.064Z,16.71
2022-07-29T07:11:33.974Z,16.77
2022-07-29T07:12:05.644Z,16.79
2022-07-29T07:12:37.180Z,16.82
2022-07-29T07:13:08.751Z,16.83
2022-07-29T07:13:40.384Z,16.86
2022-07-29T07:14:30.194Z,16.89
2022-07-29T07:15:01.575Z,16.91
2022-07-29T07:15:39.115Z,16.92
2022-07-29T07:17:01.259Z,16.97
2022-07-29T07:17:32.884Z,16.99
2022-07-29T07:18:06.665Z,16.97
2022-07-29T07:18:38.016Z,16.98
2022-07-29T07:19:09.569Z,16.97
2022-07-29T07:19:41.153Z,16.97
2022-07-29T07:20:13.302Z,16.97
2022-07-29T07:20:45.689Z,17.00
2022-07-29T07:21:19.245Z,17.04
2022-07-29T07:21:51.027Z,17.09
2022-07-29T07:22:22.421Z,17.15
2022-07-29T07:22:53.797Z,17.21
2022-07-29T07:23:25.694Z,17.26
2022-07-29T07:23:57.242Z,17.32
2022-07-29T07:24:28.660Z,17.33
2022-07-29T07:25:00.023Z,17.37
2022-07-29T07:25:31.679Z,17.42
2022-07-29T07:26:04.019Z,17.44
2022-07-29T07:26:35.612Z,17.43
2022-07-29T07:27:07.005Z,17.47
2022-07-29T07:27:40.077Z,17.51
2022-07-29T07:28:11.614Z,17.53
2022-07-29T07:28:42.997Z,17.54
2022-07-29T07:29:14.562Z,17.56
2022-07-29T07:29:45.918Z,17.57
2022-07-29T07:30:17.466Z,17.56
2022-07-29T07:30:49.067Z,17.57
2022-07-29T07:31:39.335Z,17.59
2022-07-29T07:32:11.152Z,17.62
2022-07-29T07:32:42.676Z,17.66
2022-07-29T07:33:14.213Z,17.68
2022-07-29T07:33:45.684Z,17.71
2022-07-29T07:34:17.258Z,17.75
2022-07-29T07:35:00.361Z,17.84
2022-07-29T07:35:50.048Z,17.88
2022-07-29T07:36:21.553Z,17.90
2022-07-29T07:36:52.911Z,17.90
2022-07-29T07:37:25.596Z,17.90
2022-07-29T07:38:47.138Z,17.95
2022-07-29T07:39:18.514Z,17.94
2022-07-29T07:39:49.868Z,17.96
2022-07-29T07:40:21.228Z,17.98
2022-07-29T07:40:52.750Z,18.01
2022-07-29T07:41:24.176Z,18.02
2022-07-29T07:41:55.644Z,18.06
2022-07-29T07:43:16.221Z,18.16
2022-07-29T07:43:47.889Z,18.21
2022-07-29T07:44:19.585Z,18.24
2022-07-29T07:45:11.958Z,18.30
2022-07-29T07:45:43.031Z,18.40
2022-07-29T07:46:15.269Z,18.44
2022-07-29T07:46:46.639Z,18.43
2022-07-29T07:47:21.297Z,18.40
2022-07-29T07:47:53.628Z,18.41
2022-07-29T07:48:25.159Z,18.35
2022-07-29T07:48:56.530Z,18.30
2022-07-29T07:49:27.989Z,18.26
2022-07-29T07:49:59.584Z,18.27
2022-07-29T07:50:30.989Z,18.24
2022-07-29T07:51:02.501Z,18.26
2022-07-29T07:51:33.900Z,18.26
2022-07-29T07:52:05.712Z,18.29
2022-07-29T07:53:04.115Z,18.40
2022-07-29T07:53:36.149Z,18.44
2022-07-29T07:54:25.914Z,18.52
2022-07-29T07:54:57.289Z,18.57
2022-07-29T07:55:28.700Z,18.60
2022-07-29T07:56:15.703Z,18.65
2022-07-29T07:57:05.947Z,18.72
2022-07-29T07:57:37.285Z,18.81